sensor_id;sensor_type;location;lat;lon;timestamp;P1;durP1;ratioP1;P2;durP2;ratioP2
14849;SDS011;7517;48.400;11.770;2023-02-28T00:01:27;2.73;;;2.00;;
14849;SDS011;7517;48.400;11.770;2023-02-28T00:03:54;2.20;;;2.00;;
14849;SDS011;7517;48.400;11.770;2023-02-28T00:06:22;3.33;;;2.30;;
14849;SDS011;7517;48.400;11.770;2023-02-28T00:08:50;2.17;;;1.97;;
14849;SDS011;7517;48.400;11.770;2023-02-28T00:11:19;2.07;;;1.83;;
14849;SDS011;7517;48.400;11.770;2023-02-28T00:13:47;2.30;;;2.10;;
14849;SDS011;7517;48.400;11.770;2023-02-28T00:16:15;2.07;;;1.97;;
14849;SDS011;7517;48.400;11.770;2023-02-28T00:18:45;2.67;;;1.83;;
14849;SDS011;7517;48.400;11.770;2023-02-28T00:21:14;2.40;;;2.20;;
14849;SDS011;7517;48.400;11.770;2023-02-28T00:23:42;1.97;;;1.87;;
14849;SDS011;7517;48.400;11.770;2023-02-28T00:26:10;2.10;;;1.90;;
14849;SDS011;7517;48.400;11.770;2023-02-28T00:28:40;1.93;;;1.67;;
14849;SDS011;7517;48.400;11.770;2023-02-28T00:31:07;2.60;;;1.80;;
14849;SDS011;7517;48.400;11.770;2023-02-28T00:33:34;2.43;;;2.23;;
14849;SDS011;7517;48.400;11.770;2023-02-28T00:36:05;2.03;;;1.93;;
14849;SDS011;7517;48.400;11.770;2023-02-28T00:38:35;2.00;;;1.90;;
14849;SDS011;7517;48.400;11.770;2023-02-28T00:41:03;2.10;;;1.83;;
14849;SDS011;7517;48.400;11.770;2023-02-28T00:43:31;2.10;;;1.90;;
14849;SDS011;7517;48.400;11.770;2023-02-28T00:46:03;2.00;;;1.67;;
14849;SDS011;7517;48.400;11.770;2023-02-28T00:48:31;1.73;;;1.63;;
14849;SDS011;7517;48.400;11.770;2023-02-28T00:51:02;1.97;;;1.80;;
14849;SDS011;7517;48.400;11.770;2023-02-28T00:53:31;1.83;;;1.73;;
14849;SDS011;7517;48.400;11.770;2023-02-28T00:55:59;2.60;;;2.40;;
14849;SDS011;7517;48.400;11.770;2023-02-28T00:58:26;1.80;;;1.70;;
14849;SDS011;7517;48.400;11.770;2023-02-28T01:00:54;1.90;;;1.70;;
14849;SDS011;7517;48.400;11.770;2023-02-28T01:03:23;2.33;;;2.13;;
14849;SDS011;7517;48.400;11.770;2023-02-28T01:05:52;2.23;;;2.03;;
14849;SDS011;7517;48.400;11.770;2023-02-28T01:08:20;2.30;;;2.10;;
14849;SDS011;7517;48.400;11.770;2023-02-28T01:10:48;2.13;;;1.97;;
14849;SDS011;7517;48.400;11.770;2023-02-28T01:13:15;3.60;;;2.10;;
14849;SDS011;7517;48.400;11.770;2023-02-28T01:15:43;3.10;;;2.40;;
14849;SDS011;7517;48.400;11.770;2023-02-28T01:18:16;2.40;;;2.20;;
14849;SDS011;7517;48.400;11.770;2023-02-28T01:20:45;2.63;;;2.40;;
14849;SDS011;7517;48.400;11.770;2023-02-28T01:23:12;2.30;;;2.07;;
14849;SDS011;7517;48.400;11.770;2023-02-28T01:25:41;2.10;;;1.90;;
14849;SDS011;7517;48.400;11.770;2023-02-28T01:28:09;2.33;;;2.13;;
14849;SDS011;7517;48.400;11.770;2023-02-28T01:30:36;2.57;;;2.37;;
14849;SDS011;7517;48.400;11.770;2023-02-28T01:33:03;2.07;;;1.90;;
14849;SDS011;7517;48.400;11.770;2023-02-28T01:35:32;2.17;;;1.97;;
14849;SDS011;7517;48.400;11.770;2023-02-28T01:38:01;2.10;;;1.90;;
14849;SDS011;7517;48.400;11.770;2023-02-28T01:40:29;2.23;;;2.00;;
14849;SDS011;7517;48.400;11.770;2023-02-28T01:42:56;2.60;;;2.40;;
14849;SDS011;7517;48.400;11.770;2023-02-28T01:45:26;3.07;;;2.10;;
14849;SDS011;7517;48.400;11.770;2023-02-28T01:47:56;2.00;;;1.80;;
14849;SDS011;7517;48.400;11.770;2023-02-28T01:50:31;2.03;;;1.93;;
14849;SDS011;7517;48.400;11.770;2023-02-28T01:53:09;2.20;;;2.00;;
14849;SDS011;7517;48.400;11.770;2023-02-28T01:55:41;2.80;;;2.20;;
14849;SDS011;7517;48.400;11.770;2023-02-28T01:58:16;2.47;;;2.37;;
14849;SDS011;7517;48.400;11.770;2023-02-28T02:00:43;2.27;;;2.07;;
14849;SDS011;7517;48.400;11.770;2023-02-28T02:03:12;2.27;;;2.07;;
14849;SDS011;7517;48.400;11.770;2023-02-28T02:05:44;2.70;;;2.47;;
14849;SDS011;7517;48.400;11.770;2023-02-28T02:08:15;2.50;;;2.30;;
14849;SDS011;7517;48.400;11.770;2023-02-28T02:10:48;2.40;;;2.20;;
14849;SDS011;7517;48.400;11.770;2023-02-28T02:13:21;2.47;;;2.27;;
14849;SDS011;7517;48.400;11.770;2023-02-28T02:16:22;2.47;;;2.27;;
14849;SDS011;7517;48.400;11.770;2023-02-28T02:19:12;2.80;;;2.60;;
14849;SDS011;7517;48.400;11.770;2023-02-28T02:22:22;3.00;;;2.70;;
14849;SDS011;7517;48.400;11.770;2023-02-28T02:25:18;2.40;;;2.20;;
14849;SDS011;7517;48.400;11.770;2023-02-28T02:27:59;2.40;;;2.20;;
14849;SDS011;7517;48.400;11.770;2023-02-28T02:31:14;2.40;;;2.20;;
14849;SDS011;7517;48.400;11.770;2023-02-28T02:34:10;2.03;;;1.93;;
14849;SDS011;7517;48.400;11.770;2023-02-28T02:37:09;2.97;;;2.77;;
14849;SDS011;7517;48.400;11.770;2023-02-28T02:39:51;2.33;;;2.17;;
14849;SDS011;7517;48.400;11.770;2023-02-28T02:42:28;3.33;;;2.90;;
14849;SDS011;7517;48.400;11.770;2023-02-28T02:45:06;2.37;;;2.27;;
14849;SDS011;7517;48.400;11.770;2023-02-28T02:47:38;2.60;;;2.40;;
14849;SDS011;7517;48.400;11.770;2023-02-28T02:50:13;2.80;;;2.60;;
14849;SDS011;7517;48.400;11.770;2023-02-28T02:52:48;2.90;;;2.70;;
14849;SDS011;7517;48.400;11.770;2023-02-28T02:55:22;2.77;;;2.57;;
14849;SDS011;7517;48.400;11.770;2023-02-28T02:57:51;3.13;;;2.73;;
14849;SDS011;7517;48.400;11.770;2023-02-28T03:00:25;2.53;;;2.30;;
14849;SDS011;7517;48.400;11.770;2023-02-28T03:02:59;2.67;;;2.47;;
14849;SDS011;7517;48.400;11.770;2023-02-28T03:05:32;3.27;;;2.97;;
14849;SDS011;7517;48.400;11.770;2023-02-28T03:08:07;2.80;;;2.60;;
14849;SDS011;7517;48.400;11.770;2023-02-28T03:10:37;3.07;;;2.87;;
14849;SDS011;7517;48.400;11.770;2023-02-28T03:13:13;2.80;;;2.60;;
14849;SDS011;7517;48.400;11.770;2023-02-28T03:16:46;2.60;;;2.40;;
14849;SDS011;7517;48.400;11.770;2023-02-28T03:19:32;3.23;;;2.93;;
14849;SDS011;7517;48.400;11.770;2023-02-28T03:22:21;3.10;;;2.80;;
14849;SDS011;7517;48.400;11.770;2023-02-28T03:25:16;3.20;;;2.80;;
14849;SDS011;7517;48.400;11.770;2023-02-28T03:27:53;3.07;;;2.87;;
14849;SDS011;7517;48.400;11.770;2023-02-28T03:30:41;3.20;;;2.90;;
14849;SDS011;7517;48.400;11.770;2023-02-28T03:33:17;3.30;;;3.00;;
14849;SDS011;7517;48.400;11.770;2023-02-28T03:35:51;3.20;;;2.90;;
14849;SDS011;7517;48.400;11.770;2023-02-28T03:38:27;3.33;;;3.10;;
14849;SDS011;7517;48.400;11.770;2023-02-28T03:41:03;4.07;;;3.37;;
14849;SDS011;7517;48.400;11.770;2023-02-28T03:43:38;3.47;;;3.17;;
14849;SDS011;7517;48.400;11.770;2023-02-28T03:46:12;3.93;;;3.63;;
14849;SDS011;7517;48.400;11.770;2023-02-28T03:48:47;3.40;;;3.10;;
14849;SDS011;7517;48.400;11.770;2023-02-28T03:51:22;3.10;;;2.90;;
14849;SDS011;7517;48.400;11.770;2023-02-28T03:53:56;3.67;;;2.97;;
14849;SDS011;7517;48.400;11.770;2023-02-28T03:56:30;3.37;;;3.07;;
14849;SDS011;7517;48.400;11.770;2023-02-28T03:59:04;3.03;;;2.80;;
14849;SDS011;7517;48.400;11.770;2023-02-28T04:01:40;3.47;;;3.17;;
14849;SDS011;7517;48.400;11.770;2023-02-28T04:04:10;3.37;;;3.10;;
14849;SDS011;7517;48.400;11.770;2023-02-28T04:06:40;3.37;;;3.10;;
14849;SDS011;7517;48.400;11.770;2023-02-28T04:09:12;3.70;;;3.40;;
14849;SDS011;7517;48.400;11.770;2023-02-28T04:11:41;3.57;;;3.27;;
14849;SDS011;7517;48.400;11.770;2023-02-28T04:14:11;3.73;;;3.43;;
14849;SDS011;7517;48.400;11.770;2023-02-28T04:16:39;3.90;;;3.50;;
14849;SDS011;7517;48.400;11.770;2023-02-28T04:19:09;3.40;;;3.10;;
14849;SDS011;7517;48.400;11.770;2023-02-28T04:21:39;3.50;;;3.20;;
14849;SDS011;7517;48.400;11.770;2023-02-28T04:24:10;3.70;;;3.40;;
14849;SDS011;7517;48.400;11.770;2023-02-28T04:26:41;4.10;;;3.70;;
14849;SDS011;7517;48.400;11.770;2023-02-28T04:29:11;5.90;;;3.63;;
14849;SDS011;7517;48.400;11.770;2023-02-28T04:31:45;3.60;;;3.30;;
14849;SDS011;7517;48.400;11.770;2023-02-28T04:34:14;3.77;;;2.93;;
14849;SDS011;7517;48.400;11.770;2023-02-28T04:36:41;4.80;;;3.70;;
14849;SDS011;7517;48.400;11.770;2023-02-28T04:39:12;4.17;;;3.60;;
14849;SDS011;7517;48.400;11.770;2023-02-28T04:41:39;3.73;;;3.37;;
14849;SDS011;7517;48.400;11.770;2023-02-28T04:44:07;3.70;;;3.40;;
14849;SDS011;7517;48.400;11.770;2023-02-28T04:46:34;4.23;;;3.70;;
14849;SDS011;7517;48.400;11.770;2023-02-28T04:49:01;4.10;;;3.70;;
14849;SDS011;7517;48.400;11.770;2023-02-28T04:51:29;3.87;;;3.57;;
14849;SDS011;7517;48.400;11.770;2023-02-28T04:53:58;3.70;;;3.40;;
14849;SDS011;7517;48.400;11.770;2023-02-28T04:56:27;4.10;;;3.73;;
14849;SDS011;7517;48.400;11.770;2023-02-28T04:58:54;4.10;;;3.80;;
14849;SDS011;7517;48.400;11.770;2023-02-28T05:01:23;3.93;;;3.63;;
14849;SDS011;7517;48.400;11.770;2023-02-28T05:03:52;4.73;;;4.03;;
14849;SDS011;7517;48.400;11.770;2023-02-28T05:06:22;4.10;;;3.80;;
14849;SDS011;7517;48.400;11.770;2023-02-28T05:08:53;3.87;;;3.57;;
14849;SDS011;7517;48.400;11.770;2023-02-28T05:11:22;4.50;;;4.10;;
14849;SDS011;7517;48.400;11.770;2023-02-28T05:13:58;4.50;;;4.10;;
14849;SDS011;7517;48.400;11.770;2023-02-28T05:16:27;4.73;;;3.90;;
14849;SDS011;7517;48.400;11.770;2023-02-28T05:18:54;3.87;;;3.57;;
14849;SDS011;7517;48.400;11.770;2023-02-28T05:21:24;5.07;;;4.10;;
14849;SDS011;7517;48.400;11.770;2023-02-28T05:23:55;4.83;;;4.33;;
14849;SDS011;7517;48.400;11.770;2023-02-28T05:26:27;4.87;;;4.47;;
14849;SDS011;7517;48.400;11.770;2023-02-28T05:28:55;4.43;;;4.03;;
14849;SDS011;7517;48.400;11.770;2023-02-28T05:31:23;4.43;;;4.03;;
14849;SDS011;7517;48.400;11.770;2023-02-28T05:33:50;4.20;;;3.80;;
14849;SDS011;7517;48.400;11.770;2023-02-28T05:36:17;5.00;;;4.60;;
14849;SDS011;7517;48.400;11.770;2023-02-28T05:38:47;4.23;;;3.80;;
14849;SDS011;7517;48.400;11.770;2023-02-28T05:41:16;4.60;;;4.20;;
14849;SDS011;7517;48.400;11.770;2023-02-28T05:43:47;4.20;;;3.80;;
14849;SDS011;7517;48.400;11.770;2023-02-28T05:46:15;4.60;;;4.20;;
14849;SDS011;7517;48.400;11.770;2023-02-28T05:48:42;4.40;;;4.00;;
14849;SDS011;7517;48.400;11.770;2023-02-28T05:51:14;4.77;;;4.37;;
14849;SDS011;7517;48.400;11.770;2023-02-28T05:53:42;4.03;;;3.73;;
14849;SDS011;7517;48.400;11.770;2023-02-28T05:56:10;4.33;;;3.93;;
14849;SDS011;7517;48.400;11.770;2023-02-28T05:58:38;4.87;;;4.30;;
14849;SDS011;7517;48.400;11.770;2023-02-28T06:01:20;4.60;;;4.20;;
14849;SDS011;7517;48.400;11.770;2023-02-28T06:04:00;4.03;;;3.70;;
14849;SDS011;7517;48.400;11.770;2023-02-28T06:06:30;3.77;;;3.47;;
14849;SDS011;7517;48.400;11.770;2023-02-28T06:09:01;4.90;;;4.40;;
14849;SDS011;7517;48.400;11.770;2023-02-28T06:11:30;4.73;;;4.33;;
14849;SDS011;7517;48.400;11.770;2023-02-28T06:13:57;4.77;;;3.97;;
14849;SDS011;7517;48.400;11.770;2023-02-28T06:16:28;6.17;;;4.80;;
14849;SDS011;7517;48.400;11.770;2023-02-28T06:18:58;5.30;;;4.80;;
14849;SDS011;7517;48.400;11.770;2023-02-28T06:21:28;4.83;;;4.43;;
14849;SDS011;7517;48.400;11.770;2023-02-28T06:23:57;5.53;;;4.90;;
14849;SDS011;7517;48.400;11.770;2023-02-28T06:26:25;4.90;;;4.50;;
14849;SDS011;7517;48.400;11.770;2023-02-28T06:28:53;4.33;;;4.03;;
14849;SDS011;7517;48.400;11.770;2023-02-28T06:31:20;5.57;;;5.07;;
14849;SDS011;7517;48.400;11.770;2023-02-28T06:33:51;5.43;;;4.87;;
14849;SDS011;7517;48.400;11.770;2023-02-28T06:36:18;5.70;;;4.77;;
14849;SDS011;7517;48.400;11.770;2023-02-28T06:38:45;5.13;;;4.60;;
14849;SDS011;7517;48.400;11.770;2023-02-28T06:41:16;4.43;;;4.03;;
14849;SDS011;7517;48.400;11.770;2023-02-28T06:43:44;5.00;;;4.50;;
14849;SDS011;7517;48.400;11.770;2023-02-28T06:46:12;5.33;;;4.83;;
14849;SDS011;7517;48.400;11.770;2023-02-28T06:48:42;5.30;;;4.80;;
14849;SDS011;7517;48.400;11.770;2023-02-28T06:51:12;4.87;;;4.17;;
14849;SDS011;7517;48.400;11.770;2023-02-28T06:53:43;5.00;;;4.53;;
14849;SDS011;7517;48.400;11.770;2023-02-28T06:56:11;5.67;;;5.07;;
14849;SDS011;7517;48.400;11.770;2023-02-28T06:58:40;4.70;;;4.30;;
14849;SDS011;7517;48.400;11.770;2023-02-28T07:01:09;5.20;;;4.70;;
14849;SDS011;7517;48.400;11.770;2023-02-28T07:03:36;6.53;;;5.10;;
14849;SDS011;7517;48.400;11.770;2023-02-28T07:06:04;5.47;;;4.97;;
14849;SDS011;7517;48.400;11.770;2023-02-28T07:08:33;5.83;;;5.30;;
14849;SDS011;7517;48.400;11.770;2023-02-28T07:11:03;5.17;;;4.67;;
14849;SDS011;7517;48.400;11.770;2023-02-28T07:13:32;5.50;;;4.57;;
14849;SDS011;7517;48.400;11.770;2023-02-28T07:16:01;6.10;;;5.50;;
14849;SDS011;7517;48.400;11.770;2023-02-28T07:18:34;5.20;;;4.70;;
14849;SDS011;7517;48.400;11.770;2023-02-28T07:21:02;5.73;;;5.23;;
14849;SDS011;7517;48.400;11.770;2023-02-28T07:23:31;5.63;;;5.13;;
14849;SDS011;7517;48.400;11.770;2023-02-28T07:26:03;5.00;;;4.57;;
14849;SDS011;7517;48.400;11.770;2023-02-28T07:28:31;5.13;;;4.60;;
14849;SDS011;7517;48.400;11.770;2023-02-28T07:31:02;5.60;;;5.07;;
14849;SDS011;7517;48.400;11.770;2023-02-28T07:33:30;5.63;;;5.03;;
14849;SDS011;7517;48.400;11.770;2023-02-28T07:36:02;5.70;;;5.13;;
14849;SDS011;7517;48.400;11.770;2023-02-28T07:38:34;5.07;;;4.57;;
14849;SDS011;7517;48.400;11.770;2023-02-28T07:41:02;5.70;;;5.20;;
14849;SDS011;7517;48.400;11.770;2023-02-28T07:43:30;6.53;;;4.90;;
14849;SDS011;7517;48.400;11.770;2023-02-28T07:46:01;6.00;;;4.97;;
14849;SDS011;7517;48.400;11.770;2023-02-28T07:48:30;5.40;;;4.90;;
14849;SDS011;7517;48.400;11.770;2023-02-28T07:50:58;5.50;;;5.00;;
14849;SDS011;7517;48.400;11.770;2023-02-28T07:53:27;5.13;;;4.63;;
14849;SDS011;7517;48.400;11.770;2023-02-28T07:55:57;5.27;;;4.77;;
14849;SDS011;7517;48.400;11.770;2023-02-28T07:58:27;5.10;;;4.57;;
14849;SDS011;7517;48.400;11.770;2023-02-28T08:00:56;5.50;;;4.93;;
14849;SDS011;7517;48.400;11.770;2023-02-28T08:03:31;7.43;;;4.93;;
14849;SDS011;7517;48.400;11.770;2023-02-28T08:05:58;7.07;;;5.07;;
14849;SDS011;7517;48.400;11.770;2023-02-28T08:08:25;5.30;;;4.80;;
14849;SDS011;7517;48.400;11.770;2023-02-28T08:10:59;6.03;;;4.80;;
14849;SDS011;7517;48.400;11.770;2023-02-28T08:13:27;6.03;;;5.03;;
14849;SDS011;7517;48.400;11.770;2023-02-28T08:15:56;4.93;;;4.43;;
14849;SDS011;7517;48.400;11.770;2023-02-28T08:18:24;6.27;;;5.10;;
14849;SDS011;7517;48.400;11.770;2023-02-28T08:20:52;5.93;;;5.30;;
14849;SDS011;7517;48.400;11.770;2023-02-28T08:23:19;4.90;;;4.40;;
14849;SDS011;7517;48.400;11.770;2023-02-28T08:25:52;4.67;;;4.23;;
14849;SDS011;7517;48.400;11.770;2023-02-28T08:28:22;5.07;;;4.67;;
14849;SDS011;7517;48.400;11.770;2023-02-28T08:30:50;5.63;;;4.53;;
14849;SDS011;7517;48.400;11.770;2023-02-28T08:33:17;6.57;;;4.87;;
14849;SDS011;7517;48.400;11.770;2023-02-28T08:35:44;6.07;;;5.23;;
14849;SDS011;7517;48.400;11.770;2023-02-28T08:38:12;5.37;;;4.87;;
14849;SDS011;7517;48.400;11.770;2023-02-28T08:40:39;5.20;;;4.60;;
14849;SDS011;7517;48.400;11.770;2023-02-28T08:43:07;5.30;;;4.80;;
14849;SDS011;7517;48.400;11.770;2023-02-28T08:45:36;5.67;;;4.40;;
14849;SDS011;7517;48.400;11.770;2023-02-28T08:48:04;5.17;;;4.60;;
14849;SDS011;7517;48.400;11.770;2023-02-28T08:50:32;5.23;;;4.50;;
14849;SDS011;7517;48.400;11.770;2023-02-28T08:53:00;4.80;;;4.33;;
14849;SDS011;7517;48.400;11.770;2023-02-28T08:55:28;5.77;;;4.90;;
14849;SDS011;7517;48.400;11.770;2023-02-28T08:57:55;6.07;;;5.00;;
14849;SDS011;7517;48.400;11.770;2023-02-28T09:00:23;4.90;;;4.40;;
14849;SDS011;7517;48.400;11.770;2023-02-28T09:02:52;4.90;;;4.37;;
14849;SDS011;7517;48.400;11.770;2023-02-28T09:05:19;5.67;;;4.70;;
14849;SDS011;7517;48.400;11.770;2023-02-28T09:07:48;4.87;;;4.40;;
14849;SDS011;7517;48.400;11.770;2023-02-28T09:10:16;5.07;;;4.67;;
14849;SDS011;7517;48.400;11.770;2023-02-28T09:12:44;4.77;;;4.30;;
14849;SDS011;7517;48.400;11.770;2023-02-28T09:15:12;4.80;;;4.10;;
14849;SDS011;7517;48.400;11.770;2023-02-28T09:17:39;5.03;;;4.53;;
14849;SDS011;7517;48.400;11.770;2023-02-28T09:20:10;5.70;;;4.37;;
14849;SDS011;7517;48.400;11.770;2023-02-28T09:22:38;4.87;;;4.27;;
14849;SDS011;7517;48.400;11.770;2023-02-28T09:25:06;5.23;;;4.73;;
14849;SDS011;7517;48.400;11.770;2023-02-28T09:27:33;7.17;;;5.43;;
14849;SDS011;7517;48.400;11.770;2023-02-28T09:30:02;5.13;;;4.63;;
14849;SDS011;7517;48.400;11.770;2023-02-28T09:32:30;4.93;;;4.43;;
14849;SDS011;7517;48.400;11.770;2023-02-28T09:34:58;5.53;;;5.00;;
14849;SDS011;7517;48.400;11.770;2023-02-28T09:37:27;5.60;;;4.93;;
14849;SDS011;7517;48.400;11.770;2023-02-28T09:39:56;7.00;;;4.87;;
14849;SDS011;7517;48.400;11.770;2023-02-28T09:42:26;5.10;;;4.60;;
14849;SDS011;7517;48.400;11.770;2023-02-28T09:44:58;5.10;;;4.60;;
14849;SDS011;7517;48.400;11.770;2023-02-28T09:47:38;4.27;;;3.87;;
14849;SDS011;7517;48.400;11.770;2023-02-28T09:50:13;4.47;;;4.07;;
14849;SDS011;7517;48.400;11.770;2023-02-28T09:52:56;4.57;;;4.17;;
14849;SDS011;7517;48.400;11.770;2023-02-28T09:55:27;5.83;;;4.73;;
14849;SDS011;7517;48.400;11.770;2023-02-28T09:58:00;4.60;;;4.20;;
14849;SDS011;7517;48.400;11.770;2023-02-28T10:00:29;5.67;;;5.17;;
14849;SDS011;7517;48.400;11.770;2023-02-28T10:03:09;4.60;;;4.20;;
14849;SDS011;7517;48.400;11.770;2023-02-28T10:05:56;4.67;;;4.23;;
14849;SDS011;7517;48.400;11.770;2023-02-28T10:08:33;7.10;;;4.37;;
14849;SDS011;7517;48.400;11.770;2023-02-28T10:11:11;4.50;;;4.10;;
14849;SDS011;7517;48.400;11.770;2023-02-28T10:13:46;5.00;;;4.50;;
14849;SDS011;7517;48.400;11.770;2023-02-28T10:16:22;4.60;;;4.17;;
14849;SDS011;7517;48.400;11.770;2023-02-28T10:18:59;4.77;;;4.37;;
14849;SDS011;7517;48.400;11.770;2023-02-28T10:21:34;4.70;;;4.20;;
14849;SDS011;7517;48.400;11.770;2023-02-28T10:24:16;5.57;;;4.77;;
14849;SDS011;7517;48.400;11.770;2023-02-28T10:26:52;4.87;;;4.43;;
14849;SDS011;7517;48.400;11.770;2023-02-28T10:29:27;4.47;;;4.07;;
14849;SDS011;7517;48.400;11.770;2023-02-28T10:31:58;4.70;;;4.30;;
14849;SDS011;7517;48.400;11.770;2023-02-28T10:34:30;5.10;;;4.33;;
14849;SDS011;7517;48.400;11.770;2023-02-28T10:36:57;4.80;;;4.37;;
14849;SDS011;7517;48.400;11.770;2023-02-28T10:39:38;4.97;;;4.47;;
14849;SDS011;7517;48.400;11.770;2023-02-28T10:42:19;4.43;;;4.00;;
14849;SDS011;7517;48.400;11.770;2023-02-28T10:45:06;6.53;;;4.33;;
14849;SDS011;7517;48.400;11.770;2023-02-28T10:47:41;4.87;;;4.00;;
14849;SDS011;7517;48.400;11.770;2023-02-28T10:50:31;4.93;;;4.53;;
14849;SDS011;7517;48.400;11.770;2023-02-28T10:53:22;4.73;;;4.13;;
14849;SDS011;7517;48.400;11.770;2023-02-28T10:56:00;4.93;;;4.53;;
14849;SDS011;7517;48.400;11.770;2023-02-28T10:58:30;5.43;;;4.10;;
14849;SDS011;7517;48.400;11.770;2023-02-28T11:01:13;4.93;;;4.40;;
14849;SDS011;7517;48.400;11.770;2023-02-28T11:03:44;5.20;;;4.53;;
14849;SDS011;7517;48.400;11.770;2023-02-28T11:06:14;4.43;;;4.03;;
14849;SDS011;7517;48.400;11.770;2023-02-28T11:08:50;5.17;;;4.47;;
14849;SDS011;7517;48.400;11.770;2023-02-28T11:11:22;5.13;;;4.63;;
14849;SDS011;7517;48.400;11.770;2023-02-28T11:13:57;4.47;;;4.07;;
14849;SDS011;7517;48.400;11.770;2023-02-28T11:16:33;4.83;;;4.33;;
14849;SDS011;7517;48.400;11.770;2023-02-28T11:19:06;5.20;;;4.57;;
14849;SDS011;7517;48.400;11.770;2023-02-28T11:21:47;4.77;;;4.27;;
14849;SDS011;7517;48.400;11.770;2023-02-28T11:24:23;4.23;;;3.83;;
14849;SDS011;7517;48.400;11.770;2023-02-28T11:26:56;4.93;;;4.53;;
14849;SDS011;7517;48.400;11.770;2023-02-28T11:29:24;5.10;;;4.53;;
14849;SDS011;7517;48.400;11.770;2023-02-28T11:32:12;5.00;;;4.50;;
14849;SDS011;7517;48.400;11.770;2023-02-28T11:34:45;5.17;;;4.70;;
14849;SDS011;7517;48.400;11.770;2023-02-28T11:37:25;5.23;;;4.03;;
14849;SDS011;7517;48.400;11.770;2023-02-28T11:39:56;5.20;;;4.70;;
14849;SDS011;7517;48.400;11.770;2023-02-28T11:42:29;4.87;;;4.40;;
14849;SDS011;7517;48.400;11.770;2023-02-28T11:45:26;5.13;;;4.63;;
14849;SDS011;7517;48.400;11.770;2023-02-28T11:48:12;4.33;;;4.03;;
14849;SDS011;7517;48.400;11.770;2023-02-28T11:50:54;5.60;;;4.47;;
14849;SDS011;7517;48.400;11.770;2023-02-28T11:53:45;5.57;;;5.03;;
14849;SDS011;7517;48.400;11.770;2023-02-28T11:56:44;4.83;;;4.43;;
14849;SDS011;7517;48.400;11.770;2023-02-28T12:02:26;5.63;;;4.97;;
14849;SDS011;7517;48.400;11.770;2023-02-28T12:05:11;4.70;;;4.23;;
14849;SDS011;7517;48.400;11.770;2023-02-28T12:07:59;5.03;;;4.63;;
14849;SDS011;7517;48.400;11.770;2023-02-28T12:10:41;5.27;;;4.77;;
14849;SDS011;7517;48.400;11.770;2023-02-28T12:13:25;5.40;;;4.33;;
14849;SDS011;7517;48.400;11.770;2023-02-28T12:19:26;5.07;;;4.57;;
14849;SDS011;7517;48.400;11.770;2023-02-28T12:22:20;5.80;;;5.17;;
14849;SDS011;7517;48.400;11.770;2023-02-28T12:25:03;5.20;;;4.63;;
14849;SDS011;7517;48.400;11.770;2023-02-28T12:28:12;5.63;;;4.70;;
14849;SDS011;7517;48.400;11.770;2023-02-28T12:30:46;5.50;;;5.00;;
14849;SDS011;7517;48.400;11.770;2023-02-28T12:33:21;5.17;;;4.40;;
14849;SDS011;7517;48.400;11.770;2023-02-28T12:35:56;5.47;;;4.97;;
14849;SDS011;7517;48.400;11.770;2023-02-28T12:38:28;5.17;;;4.67;;
14849;SDS011;7517;48.400;11.770;2023-02-28T12:41:03;6.57;;;5.17;;
14849;SDS011;7517;48.400;11.770;2023-02-28T12:43:36;4.03;;;3.70;;
14849;SDS011;7517;48.400;11.770;2023-02-28T12:46:10;5.17;;;4.67;;
14849;SDS011;7517;48.400;11.770;2023-02-28T12:48:44;5.80;;;4.43;;
14849;SDS011;7517;48.400;11.770;2023-02-28T12:51:20;5.93;;;4.33;;
14849;SDS011;7517;48.400;11.770;2023-02-28T12:53:50;5.13;;;4.67;;
14849;SDS011;7517;48.400;11.770;2023-02-28T12:56:32;4.90;;;4.50;;
14849;SDS011;7517;48.400;11.770;2023-02-28T12:59:12;4.33;;;4.03;;
14849;SDS011;7517;48.400;11.770;2023-02-28T13:01:56;4.87;;;4.47;;
14849;SDS011;7517;48.400;11.770;2023-02-28T13:08:15;5.70;;;5.20;;
14849;SDS011;7517;48.400;11.770;2023-02-28T13:11:25;4.83;;;4.43;;
14849;SDS011;7517;48.400;11.770;2023-02-28T13:13:58;5.43;;;4.67;;
14849;SDS011;7517;48.400;11.770;2023-02-28T13:16:31;5.30;;;4.50;;
14849;SDS011;7517;48.400;11.770;2023-02-28T13:19:24;4.70;;;4.30;;
14849;SDS011;7517;48.400;11.770;2023-02-28T13:21:55;5.23;;;4.73;;
14849;SDS011;7517;48.400;11.770;2023-02-28T13:24:55;5.33;;;4.83;;
14849;SDS011;7517;48.400;11.770;2023-02-28T13:27:31;5.50;;;5.00;;
14849;SDS011;7517;48.400;11.770;2023-02-28T13:33:30;5.17;;;4.53;;
14849;SDS011;7517;48.400;11.770;2023-02-28T13:36:09;5.20;;;4.80;;
14849;SDS011;7517;48.400;11.770;2023-02-28T13:38:51;5.07;;;4.57;;
14849;SDS011;7517;48.400;11.770;2023-02-28T13:44:18;5.13;;;4.67;;
14849;SDS011;7517;48.400;11.770;2023-02-28T13:52:59;4.80;;;4.40;;
14849;SDS011;7517;48.400;11.770;2023-02-28T13:55:56;5.00;;;4.50;;
14849;SDS011;7517;48.400;11.770;2023-02-28T13:58:40;5.23;;;4.63;;
14849;SDS011;7517;48.400;11.770;2023-02-28T14:01:21;4.80;;;4.40;;
14849;SDS011;7517;48.400;11.770;2023-02-28T14:07:20;5.67;;;4.80;;
14849;SDS011;7517;48.400;11.770;2023-02-28T14:09:55;5.33;;;4.83;;
14849;SDS011;7517;48.400;11.770;2023-02-28T14:15:28;5.33;;;4.83;;
14849;SDS011;7517;48.400;11.770;2023-02-28T14:18:23;5.47;;;4.70;;
14849;SDS011;7517;48.400;11.770;2023-02-28T14:21:01;4.97;;;4.50;;
14849;SDS011;7517;48.400;11.770;2023-02-28T14:27:32;4.87;;;4.47;;
14849;SDS011;7517;48.400;11.770;2023-02-28T14:33:38;4.70;;;4.20;;
14849;SDS011;7517;48.400;11.770;2023-02-28T14:36:25;6.77;;;4.97;;
14849;SDS011;7517;48.400;11.770;2023-02-28T14:38:59;5.03;;;4.60;;
14849;SDS011;7517;48.400;11.770;2023-02-28T14:41:33;4.50;;;4.10;;
14849;SDS011;7517;48.400;11.770;2023-02-28T14:44:12;6.50;;;5.30;;
14849;SDS011;7517;48.400;11.770;2023-02-28T14:46:43;5.83;;;5.07;;
14849;SDS011;7517;48.400;11.770;2023-02-28T14:49:17;5.83;;;5.23;;
14849;SDS011;7517;48.400;11.770;2023-02-28T14:51:48;5.13;;;4.73;;
14849;SDS011;7517;48.400;11.770;2023-02-28T14:54:30;4.90;;;4.40;;
14849;SDS011;7517;48.400;11.770;2023-02-28T14:56:59;5.73;;;4.87;;
14849;SDS011;7517;48.400;11.770;2023-02-28T14:59:27;5.33;;;4.77;;
14849;SDS011;7517;48.400;11.770;2023-02-28T15:02:19;5.23;;;4.70;;
14849;SDS011;7517;48.400;11.770;2023-02-28T15:04:57;5.70;;;5.03;;
14849;SDS011;7517;48.400;11.770;2023-02-28T15:07:27;5.47;;;4.97;;
14849;SDS011;7517;48.400;11.770;2023-02-28T15:10:11;5.40;;;4.90;;
14849;SDS011;7517;48.400;11.770;2023-02-28T15:12:49;6.00;;;5.40;;
14849;SDS011;7517;48.400;11.770;2023-02-28T15:15:21;5.17;;;4.63;;
14849;SDS011;7517;48.400;11.770;2023-02-28T15:17:54;5.47;;;4.87;;
14849;SDS011;7517;48.400;11.770;2023-02-28T15:20:28;5.63;;;5.13;;
14849;SDS011;7517;48.400;11.770;2023-02-28T15:22:55;4.80;;;4.40;;
14849;SDS011;7517;48.400;11.770;2023-02-28T15:25:24;5.67;;;5.17;;
14849;SDS011;7517;48.400;11.770;2023-02-28T15:27:53;4.93;;;4.37;;
14849;SDS011;7517;48.400;11.770;2023-02-28T15:30:24;5.40;;;4.90;;
14849;SDS011;7517;48.400;11.770;2023-02-28T15:33:05;5.90;;;5.30;;
14849;SDS011;7517;48.400;11.770;2023-02-28T15:35:47;5.70;;;5.07;;
14849;SDS011;7517;48.400;11.770;2023-02-28T15:38:17;5.73;;;5.13;;
14849;SDS011;7517;48.400;11.770;2023-02-28T15:40:50;5.30;;;4.80;;
14849;SDS011;7517;48.400;11.770;2023-02-28T15:43:24;5.37;;;4.87;;
14849;SDS011;7517;48.400;11.770;2023-02-28T15:45:55;5.17;;;4.67;;
14849;SDS011;7517;48.400;11.770;2023-02-28T15:48:27;5.70;;;5.10;;
14849;SDS011;7517;48.400;11.770;2023-02-28T15:51:02;5.53;;;4.77;;
14849;SDS011;7517;48.400;11.770;2023-02-28T15:53:36;5.30;;;4.63;;
14849;SDS011;7517;48.400;11.770;2023-02-28T15:56:20;6.17;;;5.00;;
14849;SDS011;7517;48.400;11.770;2023-02-28T15:58:53;5.93;;;4.73;;
14849;SDS011;7517;48.400;11.770;2023-02-28T16:01:25;5.37;;;4.77;;
14849;SDS011;7517;48.400;11.770;2023-02-28T16:03:55;5.20;;;4.70;;